createdAt,value
2023-02-14T00:02:19.409Z,87.52
2023-02-14T00:04:45.937Z,87.33
2023-02-14T00:07:12.754Z,87.49
2023-02-14T00:09:39.232Z,87.23
2023-02-14T00:12:06.236Z,86.70
2023-02-14T00:14:32.958Z,87.50
2023-02-14T00:16:59.898Z,88.16
2023-02-14T00:19:26.587Z,87.54
2023-02-14T00:21:53.142Z,87.79
2023-02-14T00:24:25.225Z,87.50
2023-02-14T00:26:52.736Z,86.99
2023-02-14T00:29:31.047Z,86.16
2023-02-14T00:31:58.120Z,86.68
2023-02-14T00:34:24.929Z,86.57
2023-02-14T00:36:51.628Z,85.45
2023-02-14T00:39:19.584Z,85.24
2023-02-14T00:41:46.137Z,85.19
2023-02-14T00:44:13.655Z,85.49
2023-02-14T00:46:40.687Z,86.01
2023-02-14T00:49:07.241Z,85.88
2023-02-14T00:51:33.760Z,85.69
2023-02-14T00:54:01.947Z,85.07
2023-02-14T00:56:31.021Z,85.11
2023-02-14T00:58:57.499Z,85.81
2023-02-14T01:01:24.213Z,85.71
2023-02-14T01:03:50.861Z,85.37
2023-02-14T01:06:18.740Z,85.29
2023-02-14T01:08:45.343Z,85.89
2023-02-14T01:11:23.038Z,86.02
2023-02-14T01:13:51.342Z,85.56
2023-02-14T01:16:21.565Z,85.54
2023-02-14T01:18:49.059Z,85.21
2023-02-14T01:21:45.364Z,85.61
2023-02-14T01:24:12.410Z,85.74
2023-02-14T01:26:41.460Z,85.65
2023-02-14T01:29:09.128Z,85.86
2023-02-14T01:31:36.132Z,85.41
2023-02-14T01:34:03.057Z,85.67
2023-02-14T01:36:38.436Z,85.70
2023-02-14T01:39:07.833Z,85.91
2023-02-14T01:41:37.510Z,85.67
2023-02-14T01:44:07.387Z,85.45
2023-02-14T01:46:36.112Z,85.56
2023-02-14T01:49:25.782Z,85.20
2023-02-14T01:52:14.226Z,85.45
2023-02-14T01:54:49.738Z,85.74
2023-02-14T01:57:20.301Z,85.35
2023-02-14T01:59:52.716Z,85.53
2023-02-14T02:02:19.642Z,85.46
2023-02-14T02:04:46.648Z,85.48
2023-02-14T02:07:19.383Z,85.74
2023-02-14T02:10:00.194Z,85.01
2023-02-14T02:12:29.248Z,85.47
2023-02-14T02:14:58.852Z,85.57
2023-02-14T02:17:38.200Z,85.39
2023-02-14T02:20:48.126Z,85.87
2023-02-14T02:23:23.440Z,85.35
2023-02-14T02:26:23.735Z,85.83
2023-02-14T02:28:59.406Z,86.01
2023-02-14T02:31:45.982Z,85.72
2023-02-14T02:34:18.516Z,85.48
2023-02-14T02:36:56.878Z,85.44
2023-02-14T02:39:41.459Z,85.63
2023-02-14T02:42:33.238Z,85.87
2023-02-14T02:45:33.698Z,85.53
2023-02-14T02:48:17.722Z,85.79
2023-02-14T02:50:49.332Z,85.34
2023-02-14T02:53:18.810Z,86.02
2023-02-14T02:56:04.666Z,85.48
2023-02-14T02:58:36.837Z,85.63
2023-02-14T03:01:10.211Z,85.54
2023-02-14T03:03:39.453Z,85.22
2023-02-14T03:06:06.287Z,85.80
2023-02-14T03:08:33.052Z,85.55
2023-02-14T03:11:01.979Z,85.40
2023-02-14T03:13:41.920Z,85.40
2023-02-14T03:16:33.167Z,85.63
2023-02-14T03:19:21.695Z,85.97
2023-02-14T03:21:56.478Z,85.37
2023-02-14T03:24:50.880Z,85.62
2023-02-14T03:27:26.997Z,85.98
2023-02-14T03:30:02.652Z,85.75
2023-02-14T03:32:38.225Z,85.52
2023-02-14T03:35:23.642Z,86.04
2023-02-14T03:38:09.024Z,85.63
2023-02-14T03:40:43.000Z,85.41
2023-02-14T03:43:18.752Z,85.81
2023-02-14T03:46:04.238Z,85.98
2023-02-14T03:48:33.378Z,86.18
2023-02-14T03:51:01.403Z,86.00
2023-02-14T03:53:32.742Z,86.23
2023-02-14T03:56:12.720Z,86.18
2023-02-14T03:58:47.256Z,86.39
2023-02-14T04:01:21.283Z,86.61
2023-02-14T04:03:48.948Z,87.07
2023-02-14T04:06:18.284Z,86.85
2023-02-14T04:08:45.126Z,87.57
2023-02-14T04:11:11.756Z,87.97
2023-02-14T04:13:38.677Z,88.30
2023-02-14T04:16:05.809Z,88.69
2023-02-14T04:18:32.885Z,88.23
2023-02-14T04:21:00.245Z,88.84
2023-02-14T04:23:26.965Z,88.84
2023-02-14T04:25:53.499Z,88.54
2023-02-14T04:28:20.033Z,88.15
2023-02-14T04:30:46.675Z,89.20
2023-02-14T04:33:13.417Z,88.89
2023-02-14T04:35:39.913Z,89.24
2023-02-14T04:38:06.467Z,89.38
2023-02-14T04:40:33.007Z,89.43
2023-02-14T04:42:59.551Z,89.73
2023-02-14T04:45:26.012Z,90.25
2023-02-14T04:47:52.557Z,90.25
2023-02-14T04:50:19.076Z,90.19
2023-02-14T04:52:45.560Z,89.90
2023-02-14T04:55:12.024Z,90.57
2023-02-14T04:57:38.586Z,91.11
2023-02-14T05:00:05.916Z,90.09
2023-02-14T05:02:32.426Z,90.13
2023-02-14T05:04:58.910Z,90.69
2023-02-14T05:07:25.453Z,90.86
2023-02-14T05:09:51.986Z,90.46
2023-02-14T05:12:18.447Z,90.71
2023-02-14T05:14:45.029Z,90.64
2023-02-14T05:17:11.602Z,91.02
2023-02-14T05:19:38.065Z,90.51
2023-02-14T05:22:04.661Z,90.58
2023-02-14T05:24:31.221Z,89.82
2023-02-14T05:26:57.733Z,90.04
2023-02-14T05:29:24.219Z,90.23
2023-02-14T05:31:50.841Z,89.95
2023-02-14T05:34:17.301Z,90.21
2023-02-14T05:36:43.886Z,90.03
2023-02-14T05:39:10.331Z,90.05
2023-02-14T05:44:03.233Z,89.56
2023-02-14T05:46:29.716Z,89.69
2023-02-14T05:48:56.329Z,89.43
2023-02-14T05:51:22.853Z,89.48
2023-02-14T05:53:49.332Z,89.42
2023-02-14T05:56:15.832Z,89.42
2023-02-14T05:58:42.332Z,89.36
2023-02-14T06:01:08.833Z,89.03
2023-02-14T06:03:35.347Z,88.88
2023-02-14T06:06:01.849Z,88.98
2023-02-14T06:08:28.365Z,88.67
2023-02-14T06:10:54.874Z,88.55
2023-02-14T06:13:21.344Z,88.66
2023-02-14T06:15:47.793Z,88.54
2023-02-14T06:18:14.266Z,88.54
2023-02-14T06:20:40.737Z,88.69
2023-02-14T06:23:07.270Z,89.00
2023-02-14T06:25:33.761Z,89.25
2023-02-14T06:28:00.390Z,89.47
2023-02-14T06:30:27.715Z,89.07
2023-02-14T06:32:54.385Z,88.98
2023-02-14T06:35:20.904Z,89.08
2023-02-14T06:37:47.401Z,89.32
2023-02-14T06:40:14.334Z,89.40
2023-02-14T06:42:41.069Z,90.31
2023-02-14T06:45:08.106Z,90.83
2023-02-14T06:47:35.220Z,91.52
2023-02-14T06:50:02.673Z,91.75
2023-02-14T06:52:29.144Z,92.05
2023-02-14T06:54:55.681Z,91.67
2023-02-14T06:57:22.139Z,92.16
2023-02-14T06:59:48.612Z,92.42
2023-02-14T07:02:15.161Z,92.32
2023-02-14T07:04:41.674Z,92.27
2023-02-14T07:07:08.149Z,91.95
2023-02-14T07:09:34.713Z,92.01
2023-02-14T07:12:01.171Z,92.11
2023-02-14T07:14:27.690Z,91.96
2023-02-14T07:16:54.177Z,91.93
2023-02-14T07:19:20.653Z,91.23
2023-02-14T07:21:47.075Z,91.26
2023-02-14T07:24:13.571Z,91.48
2023-02-14T07:26:40.076Z,91.78
2023-02-14T07:29:06.553Z,91.85
2023-02-14T07:31:33.102Z,92.05
2023-02-14T07:33:59.708Z,92.25
2023-02-14T07:36:26.287Z,92.60
2023-02-14T07:38:52.799Z,92.81
2023-02-14T07:41:19.383Z,92.45
2023-02-14T07:43:45.853Z,92.35
2023-02-14T07:46:12.336Z,92.76
2023-02-14T07:48:38.840Z,92.71
2023-02-14T07:51:05.368Z,92.84
2023-02-14T07:53:31.933Z,92.79
2023-02-14T07:55:58.537Z,92.86
2023-02-14T07:58:25.011Z,92.58
2023-02-14T08:00:51.486Z,92.57
2023-02-14T08:03:18.282Z,92.29
2023-02-14T08:05:45.176Z,92.81
2023-02-14T08:08:11.630Z,92.42
2023-02-14T08:10:38.140Z,92.38
2023-02-14T08:13:04.643Z,92.42
2023-02-14T08:15:35.535Z,92.55
2023-02-14T08:18:02.035Z,92.94
2023-02-14T08:20:28.544Z,93.09
2023-02-14T08:22:55.087Z,92.80
2023-02-14T08:25:21.522Z,92.83
2023-02-14T08:27:48.009Z,92.70
2023-02-14T08:30:15.207Z,92.98
2023-02-14T08:32:41.889Z,92.54
2023-02-14T08:35:09.709Z,92.42
2023-02-14T08:37:36.232Z,92.44
2023-02-14T08:40:03.040Z,93.25
2023-02-14T08:42:29.557Z,93.27
2023-02-14T08:44:56.057Z,92.49
2023-02-14T08:47:22.534Z,93.39
2023-02-14T08:49:49.023Z,93.64
2023-02-14T08:52:16.030Z,92.80
2023-02-14T08:54:42.746Z,93.93
2023-02-14T08:57:09.288Z,93.26
2023-02-14T08:59:35.810Z,93.80
2023-02-14T09:02:02.303Z,95.69
2023-02-14T09:04:28.876Z,96.14
2023-02-14T09:06:55.417Z,95.97
2023-02-14T09:09:21.895Z,97.09
2023-02-14T09:11:48.393Z,97.50
2023-02-14T09:14:14.920Z,97.99
2023-02-14T09:16:41.487Z,96.31
2023-02-14T09:19:07.976Z,94.57
2023-02-14T09:21:34.490Z,92.87
2023-02-14T09:24:00.965Z,92.67
2023-02-14T09:26:27.440Z,90.37
2023-02-14T09:28:53.958Z,91.10
2023-02-14T09:31:22.952Z,89.19
2023-02-14T09:33:50.944Z,88.01
2023-02-14T09:36:17.620Z,86.73
2023-02-14T09:38:44.116Z,85.50
2023-02-14T09:41:36.174Z,83.70
2023-02-14T09:44:07.858Z,82.31
2023-02-14T09:46:42.824Z,79.67
2023-02-14T09:49:15.508Z,77.55
2023-02-14T09:51:49.105Z,76.19
2023-02-14T09:54:26.912Z,75.39
2023-02-14T09:57:02.484Z,75.39
2023-02-14T09:59:52.747Z,72.38
2023-02-14T10:02:19.435Z,73.82
2023-02-14T10:05:07.338Z,70.58
2023-02-14T10:07:48.222Z,70.71
2023-02-14T10:11:02.541Z,71.28
2023-02-14T10:13:44.416Z,70.17
2023-02-14T10:16:28.164Z,69.11
2023-02-14T10:19:02.532Z,68.67
2023-02-14T10:21:36.204Z,67.33
2023-02-14T10:24:16.370Z,65.56
2023-02-14T10:26:42.898Z,65.44
2023-02-14T10:29:14.522Z,63.78
2023-02-14T10:31:56.805Z,63.16
2023-02-14T10:34:47.161Z,61.77
2023-02-14T10:37:13.617Z,62.36
2023-02-14T10:39:58.413Z,59.22
2023-02-14T10:42:43.383Z,59.79
2023-02-14T10:45:34.363Z,57.89
2023-02-14T10:48:12.841Z,58.59
2023-02-14T10:50:44.810Z,58.82
2023-02-14T10:53:11.235Z,58.56
2023-02-14T10:55:45.334Z,57.96
2023-02-14T10:58:16.065Z,57.37
2023-02-14T11:01:04.064Z,57.00
2023-02-14T11:03:33.416Z,58.40
2023-02-14T11:06:00.047Z,58.26
2023-02-14T11:08:52.847Z,56.99
2023-02-14T11:11:27.377Z,57.76
2023-02-14T11:13:54.046Z,57.83
2023-02-14T11:16:32.805Z,57.55
2023-02-14T11:19:14.554Z,57.12
2023-02-14T11:21:45.997Z,57.89
2023-02-14T11:24:30.801Z,58.62
2023-02-14T11:27:02.217Z,59.29
2023-02-14T11:29:35.235Z,59.91
2023-02-14T11:32:14.250Z,59.95
2023-02-14T11:34:45.344Z,60.52
2023-02-14T11:37:28.843Z,60.54
2023-02-14T11:39:59.479Z,61.46
2023-02-14T11:42:46.543Z,62.29
2023-02-14T11:45:26.300Z,61.95
2023-02-14T11:48:22.030Z,62.65
2023-02-14T11:51:00.783Z,63.58
2023-02-14T11:53:29.803Z,63.62
2023-02-14T11:55:58.656Z,63.92
2023-02-14T11:58:36.260Z,64.42
2023-02-14T12:01:03.559Z,64.19
2023-02-14T12:03:39.343Z,65.73
2023-02-14T12:06:06.463Z,65.33
2023-02-14T12:08:33.006Z,64.85
2023-02-14T12:11:04.346Z,65.87
2023-02-14T12:13:32.502Z,65.57
2023-02-14T12:15:59.354Z,65.79
2023-02-14T12:18:31.646Z,65.42
2023-02-14T12:21:22.210Z,65.08
2023-02-14T12:23:48.621Z,65.29
2023-02-14T12:26:28.481Z,65.36
2023-02-14T12:29:19.709Z,65.07
2023-02-14T12:31:47.520Z,65.00
2023-02-14T12:34:16.637Z,65.94
2023-02-14T12:37:05.849Z,65.88
2023-02-14T12:39:37.474Z,65.65
2023-02-14T12:42:51.274Z,66.46
2023-02-14T12:45:30.354Z,66.42
2023-02-14T12:48:16.171Z,66.76
2023-02-14T12:51:07.625Z,66.43
2023-02-14T12:53:42.338Z,66.41
2023-02-14T12:56:31.900Z,66.42
2023-02-14T12:59:04.541Z,66.62
2023-02-14T13:01:58.932Z,66.56
2023-02-14T13:04:58.617Z,66.47
2023-02-14T13:07:29.131Z,66.29
2023-02-14T13:10:23.215Z,66.86
2023-02-14T13:13:15.307Z,66.78
2023-02-14T13:15:53.152Z,66.43
2023-02-14T13:18:54.450Z,65.87
2023-02-14T13:21:26.250Z,65.12
2023-02-14T13:23:56.930Z,65.26
2023-02-14T13:26:35.353Z,64.36
2023-02-14T13:29:10.209Z,63.37
2023-02-14T13:31:38.388Z,63.57
2023-02-14T13:34:28.232Z,62.71
2023-02-14T13:36:58.005Z,62.75
2023-02-14T13:39:37.913Z,61.91
2023-02-14T13:42:06.312Z,61.11
2023-02-14T13:44:38.750Z,60.29
2023-02-14T13:47:07.666Z,60.69
2023-02-14T13:49:39.453Z,60.69
2023-02-14T13:52:06.516Z,60.50
2023-02-14T13:54:48.660Z,60.40
2023-02-14T13:57:32.279Z,60.53
2023-02-14T14:00:22.619Z,59.43
2023-02-14T14:02:54.045Z,59.40
2023-02-14T14:05:29.701Z,58.99
2023-02-14T14:08:22.002Z,59.19
2023-02-14T14:10:52.516Z,58.19
2023-02-14T14:13:40.660Z,56.92
2023-02-14T14:16:25.118Z,56.97
2023-02-14T14:18:53.959Z,57.14
2023-02-14T14:21:35.099Z,57.27
2023-02-14T14:24:30.483Z,56.71
2023-02-14T14:27:03.501Z,56.77
2023-02-14T14:29:44.996Z,56.23
2023-02-14T14:32:12.559Z,55.62
2023-02-14T14:34:49.281Z,54.93
2023-02-14T14:37:18.962Z,54.88
2023-02-14T14:40:08.421Z,53.77
2023-02-14T14:42:40.177Z,53.29
2023-02-14T14:45:19.053Z,52.42
2023-02-14T14:47:46.530Z,52.27
2023-02-14T14:50:21.783Z,51.35
2023-02-14T14:52:51.173Z,51.00
2023-02-14T14:55:24.689Z,50.88
2023-02-14T14:57:56.509Z,50.77
2023-02-14T15:00:33.982Z,50.58
2023-02-14T15:03:06.028Z,49.92
2023-02-14T15:05:36.478Z,49.60
2023-02-14T15:08:27.760Z,49.18
2023-02-14T15:10:58.716Z,49.04
2023-02-14T15:13:37.057Z,48.64
2023-02-14T15:16:04.027Z,48.89
2023-02-14T15:18:30.682Z,48.00
2023-02-14T15:20:57.467Z,47.58
2023-02-14T15:23:24.901Z,47.56
2023-02-14T15:25:52.185Z,47.35
2023-02-14T15:28:33.503Z,46.08
2023-02-14T15:31:03.713Z,46.29
2023-02-14T15:33:32.181Z,46.25
2023-02-14T15:36:04.132Z,46.24
2023-02-14T15:38:31.809Z,46.48
2023-02-14T15:41:00.112Z,46.69
2023-02-14T15:43:36.379Z,46.31
2023-02-14T15:46:19.852Z,46.45
2023-02-14T15:48:47.202Z,46.92
2023-02-14T15:51:21.528Z,46.42
2023-02-14T15:53:55.912Z,46.89
2023-02-14T15:56:26.202Z,47.11
2023-02-14T15:58:59.777Z,47.18
2023-02-14T16:01:26.297Z,47.71
2023-02-14T16:03:57.287Z,48.09
2023-02-14T16:06:32.920Z,48.22
2023-02-14T16:08:59.502Z,48.71
2023-02-14T16:11:37.363Z,48.50
2023-02-14T16:14:26.784Z,48.98
2023-02-14T16:17:03.763Z,49.81
2023-02-14T16:19:42.471Z,50.74
2023-02-14T16:22:23.956Z,50.87
2023-02-14T16:24:50.465Z,51.29
2023-02-14T16:27:16.994Z,51.66
2023-02-14T16:29:43.472Z,52.47
2023-02-14T16:32:28.021Z,52.19
2023-02-14T16:34:54.633Z,53.35
2023-02-14T16:37:30.086Z,53.12
2023-02-14T16:39:56.790Z,53.29
2023-02-14T16:42:24.003Z,53.92
2023-02-14T16:44:50.910Z,54.40
2023-02-14T16:47:19.741Z,54.63
2023-02-14T16:49:46.808Z,55.10
2023-02-14T16:52:16.728Z,55.35
2023-02-14T16:54:43.610Z,55.52
2023-02-14T16:57:28.972Z,55.99
2023-02-14T16:59:56.838Z,55.78
2023-02-14T17:02:23.976Z,56.44
2023-02-14T17:04:50.498Z,57.53
2023-02-14T17:07:17.101Z,57.11
2023-02-14T17:09:50.083Z,57.68
2023-02-14T17:12:20.732Z,57.68
2023-02-14T17:14:51.429Z,58.74
2023-02-14T17:17:18.094Z,58.73
2023-02-14T17:19:44.735Z,59.15
2023-02-14T17:22:14.091Z,59.12
2023-02-14T17:24:41.554Z,59.86
2023-02-14T17:27:08.087Z,60.25
2023-02-14T17:29:34.614Z,60.50
2023-02-14T17:32:01.250Z,61.75
2023-02-14T17:34:32.196Z,62.48
2023-02-14T17:36:58.832Z,62.92
2023-02-14T17:39:25.444Z,62.86
2023-02-14T17:41:51.943Z,62.86
2023-02-14T17:44:18.433Z,62.79
2023-02-14T17:46:44.921Z,63.08
2023-02-14T17:49:11.446Z,63.24
2023-02-14T17:51:37.953Z,63.69
2023-02-14T17:54:04.435Z,63.79
2023-02-14T17:56:30.922Z,63.63
2023-02-14T17:58:57.488Z,64.27
2023-02-14T18:01:27.084Z,64.55
2023-02-14T18:03:54.537Z,64.85
2023-02-14T18:06:21.608Z,64.88
2023-02-14T18:08:49.797Z,65.59
2023-02-14T18:11:18.316Z,65.45
2023-02-14T18:13:44.866Z,65.90
2023-02-14T18:16:15.497Z,65.72
2023-02-14T18:18:42.102Z,65.91
2023-02-14T18:21:11.887Z,66.07
2023-02-14T18:23:38.901Z,66.27
2023-02-14T18:26:09.681Z,66.28
2023-02-14T18:28:36.750Z,66.00
2023-02-14T18:31:15.465Z,67.78
2023-02-14T18:33:42.836Z,67.14
2023-02-14T18:36:12.149Z,68.04
2023-02-14T18:38:39.930Z,68.27
2023-02-14T18:41:08.338Z,68.05
2023-02-14T18:43:35.978Z,67.65
2023-02-14T18:46:07.690Z,68.49
2023-02-14T18:48:34.378Z,68.43
2023-02-14T18:51:15.869Z,68.29
2023-02-14T18:53:43.862Z,68.58
2023-02-14T18:56:16.316Z,68.44
2023-02-14T18:58:46.466Z,68.19
2023-02-14T19:01:19.936Z,68.12
2023-02-14T19:03:46.963Z,68.44
2023-02-14T19:06:13.436Z,69.46
2023-02-14T19:08:41.091Z,68.73
2023-02-14T19:11:13.172Z,69.80
2023-02-14T19:13:44.297Z,70.05
2023-02-14T19:16:12.890Z,70.23
2023-02-14T19:18:39.947Z,69.90
2023-02-14T19:21:11.331Z,69.38
2023-02-14T19:23:38.052Z,70.41
2023-02-14T19:26:19.580Z,70.86
2023-02-14T19:28:47.327Z,69.58
2023-02-14T19:31:14.357Z,69.89
2023-02-14T19:33:43.754Z,69.35
2023-02-14T19:36:16.164Z,69.84
2023-02-14T19:38:45.057Z,69.83
2023-02-14T19:41:21.474Z,70.52
2023-02-14T19:43:48.880Z,70.13
2023-02-14T19:46:17.647Z,71.00
2023-02-14T19:48:45.062Z,71.39
2023-02-14T19:51:16.801Z,71.35
2023-02-14T19:53:43.353Z,71.11
2023-02-14T19:56:10.709Z,70.81
2023-02-14T19:58:37.213Z,71.85
2023-02-14T20:01:04.742Z,72.26
2023-02-14T20:03:32.127Z,72.33
2023-02-14T20:05:58.659Z,72.07
2023-02-14T20:08:25.125Z,72.12
2023-02-14T20:10:51.620Z,71.90
2023-02-14T20:13:18.103Z,71.95
2023-02-14T20:15:44.566Z,72.24
2023-02-14T20:18:11.046Z,72.85
2023-02-14T20:20:37.514Z,72.14
2023-02-14T20:23:03.985Z,72.37
2023-02-14T20:25:30.439Z,72.65
2023-02-14T20:27:56.952Z,72.93
2023-02-14T20:30:23.470Z,72.97
2023-02-14T20:32:50.843Z,72.38
2023-02-14T20:35:17.309Z,73.04
2023-02-14T20:37:43.766Z,72.67
2023-02-14T20:40:10.863Z,72.72
2023-02-14T20:42:37.337Z,73.89
2023-02-14T20:45:03.966Z,73.48
2023-02-14T20:47:30.447Z,74.87
2023-02-14T20:49:56.925Z,73.96
2023-02-14T20:52:23.415Z,74.24
2023-02-14T20:54:49.865Z,74.34
2023-02-14T20:57:16.329Z,75.29
2023-02-14T20:59:42.879Z,75.46
2023-02-14T21:02:09.798Z,75.39
2023-02-14T21:04:36.518Z,75.56
2023-02-14T21:07:03.325Z,74.98
2023-02-14T21:09:29.772Z,74.82
2023-02-14T21:11:56.253Z,74.72
2023-02-14T21:14:22.709Z,75.99
2023-02-14T21:16:49.184Z,75.14
2023-02-14T21:19:15.729Z,76.16
2023-02-14T21:21:42.256Z,75.75
2023-02-14T21:24:15.773Z,75.93
2023-02-14T21:26:43.332Z,75.49
2023-02-14T21:29:10.197Z,76.18
2023-02-14T21:31:38.400Z,75.23
2023-02-14T21:34:05.282Z,75.55
2023-02-14T21:36:33.597Z,75.11
2023-02-14T21:39:00.261Z,75.02
2023-02-14T21:41:31.084Z,75.66
2023-02-14T21:43:59.065Z,75.48
2023-02-14T21:46:28.128Z,75.28
2023-02-14T21:48:56.023Z,75.79
2023-02-14T21:51:22.983Z,75.60
2023-02-14T21:53:50.012Z,76.73
2023-02-14T21:56:20.228Z,76.27
2023-02-14T21:58:48.581Z,76.12
2023-02-14T22:01:23.215Z,76.06
2023-02-14T22:03:51.019Z,77.07
2023-02-14T22:06:17.576Z,76.73
2023-02-14T22:08:44.496Z,77.32
2023-02-14T22:11:13.542Z,76.62
2023-02-14T22:13:40.692Z,77.63
2023-02-14T22:16:13.375Z,77.51
2023-02-14T22:18:40.279Z,78.17
2023-02-14T22:21:13.129Z,79.17
2023-02-14T22:23:40.178Z,78.89
2023-02-14T22:26:14.482Z,79.77
2023-02-14T22:28:42.233Z,78.59
2023-02-14T22:31:09.419Z,79.49
2023-02-14T22:33:37.776Z,79.51
2023-02-14T22:36:05.348Z,79.50
2023-02-14T22:38:32.889Z,80.11
2023-02-14T22:41:15.437Z,79.70
2023-02-14T22:43:43.517Z,80.48
2023-02-14T22:46:18.848Z,80.41
2023-02-14T22:48:46.521Z,79.56
2023-02-14T22:51:24.862Z,79.86
2023-02-14T22:53:54.597Z,79.01
2023-02-14T22:56:25.084Z,78.67
2023-02-14T22:58:56.310Z,79.58
2023-02-14T23:01:23.697Z,79.65
2023-02-14T23:03:53.966Z,79.20
2023-02-14T23:06:20.582Z,79.28
2023-02-14T23:08:47.841Z,80.09
2023-02-14T23:11:17.621Z,79.80
2023-02-14T23:13:44.357Z,80.98
2023-02-14T23:16:10.842Z,80.64
2023-02-14T23:18:37.350Z,80.46
2023-02-14T23:21:03.820Z,79.61
2023-02-14T23:23:31.842Z,79.48
2023-02-14T23:25:59.681Z,79.75
2023-02-14T23:28:26.914Z,78.98
2023-02-14T23:30:53.380Z,79.34
2023-02-14T23:33:20.568Z,79.73
2023-02-14T23:35:47.015Z,80.10
2023-02-14T23:38:13.537Z,79.77
2023-02-14T23:40:39.966Z,79.92
2023-02-14T23:43:06.421Z,79.82
2023-02-14T23:45:32.920Z,78.86
2023-02-14T23:48:04.322Z,79.60
2023-02-14T23:50:31.091Z,79.45
2023-02-14T23:52:58.282Z,78.76
2023-02-14T23:55:24.849Z,79.06
2023-02-14T23:57:51.302Z,79.52
